Krisztian Szalai

Olheiro-Chefe - Honved
22 Fev 2028
Terça-feira
Processo

Personalidade

Adaptabilidade (3) Ambição (3) Controvérsia (15) Lealdade (8) Pressão (18) Profissionalismo (1) Espírito Esportivo (15) Temperamento (6)

Perfil

Estilo de Treinamento Democrático
Licença Nacional B
Determinação 12
Gestão de Pessoas 8
Motivação 12
Disciplina 8
Satisfação no Trabalho
100%
Fadiga
0%
Função Olheiro-Chefe
Salário 20.9K p/s
Contrato 14.03.2030

Desempenho

Comportamento Bom
Eficácia do Treinamento
45%
Desenvolvimento do Jogador
35%
Prevenção de Lesões
50%
Implementação Tática
25%

Eventos Recentes

Participou de uma reunião de recrutamento agora
Participou de uma reunião de recrutamento 7d atrás
Participou de uma reunião de recrutamento 7d atrás
Participou de uma reunião de recrutamento 7d atrás
Participou de uma reunião de recrutamento 14d atrás
Participou de uma reunião de recrutamento 14d atrás
Participou de uma reunião de recrutamento 14d atrás
Participou de uma reunião de recrutamento 21d atrás

Monitorando agora

142
Jogador Clube Status Habilidade Confiança Observado Última observação Último voto
Marco Bustillo Zamora Perdido 104 / 116 40% 3 10.01.2028 -
David Fiola Haladas Ativo 79 / 102 55% 1 10.01.2028 -
Dénes Szakál Debrecen Ativo 94 / 94 55% 1 02.01.2028 -
Adalberto Peñaranda Deportivo Tachira Ativo 113 / 105 40% 4 31.12.2027 -
Eric Ramírez Llaneros Ativo 104 / 111 40% 2 31.12.2027 -
Santiago Sala Güemes Ativo 126 / 123 40% 4 30.12.2027 -
Kevin Méndez Dinamo Tbilisi Ativo 125 / 122 40% 6 29.12.2027 -
Gianluca Pugliese Güemes Ativo 109 / 108 40% 2 29.12.2027 -
Jefry Zapata Danubio Perdido 129 / 118 40% 4 28.12.2027 -
Mandla Mahlangu Ajax Cape Town Ativo 116 / 115 40% 1 28.12.2027 -
Agustín Gallo Tristán Suárez Ativo 111 / 100 40% 3 27.12.2027 -
Alejo Cruz Juventud Ativo 124 / 123 40% 2 26.12.2027 -
Nicolás Cordero Aldosivi Perdido 127 / 127 40% 1 26.12.2027 -
Federico Martínez Liverpool Montevideo Ativo 110 / 107 40% 2 25.12.2027 -
Javier Martínez Almirante Brown Ativo 98 / 106 40% 1 23.12.2027 -
Victor Mbaoma Tusker Ativo 102 / 106 40% 1 23.12.2027 -
Santiago Apa All Boys Ativo 101 / 112 40% 5 20.12.2027 -
Lewis Morgan SuperSport United Ativo 128 / 118 40% 6 19.12.2027 -
Fernando Mimbacas Juventud Perdido 112 / 125 40% 3 16.12.2027 -
Richard Figueroa Deportivo Lara Ativo 104 / 89 40% 2 16.12.2027 -
Maclyn Biokpo Jenewari Rivers United Ativo 121 / 107 40% 2 15.12.2027 -
Juan Rocca Gimnasia y Tiro Ativo 106 / 106 40% 1 15.12.2027 -
Leandro Suhr Boston River Perdido 138 / 108 40% 2 14.12.2027 -
Luca Martínez Dupuy Godoy Cruz Perdido 140 / 120 40% 5 12.12.2027 -
Nahuel Soria Oriental Ativo 92 / 103 40% 1 12.12.2027 -
Bautista Tomatis Racing Perdido 129 / 103 40% 1 08.12.2027 -
Junior Paredes Trujillanos Ativo 89 / 92 40% 1 08.12.2027 -
Samuel Anakwe Remo Stars Ativo 93 / 91 40% 3 28.11.2027 -
Agustín Módica Gimnasia y Esgrima Ativo 121 / 118 40% 3 25.11.2027 -
Misael Sosa Godoy Cruz Ativo 103 / 107 40% 2 25.11.2027 -
Luciano Cosentino Wanderers Ativo 111 / 115 40% 5 23.11.2027 -
Alexander Díaz Deportivo Riestra Ativo 124 / 119 40% 1 18.11.2027 -
Joaquín Zeballos Wanderers Ativo 100 / 103 40% 1 14.11.2027 -
Lucas Carrizo Plaza Colonia Ativo 108 / 117 40% 1 11.11.2027 -
Sunday Megwo Abia Warriors Ativo 93 / 98 40% 1 04.11.2027 -
Tiziano Dornell Danubio Ativo 98 / 126 40% 2 02.11.2027 -
Agustín Paz Progreso Ativo 107 / 111 40% 2 29.10.2027 -
Nicolás Heiz Maipú Ativo 125 / 113 40% 1 23.10.2027 -
Timothy Zechariah Rivers United Ativo 101 / 86 40% 1 20.10.2027 -
Marco Miori Alvarado Ativo 109 / 114 40% 2 19.10.2027 -
Elías Ayala Madryn Ativo 96 / 98 40% 1 18.10.2027 -
Sebastián Cocimano Nueva Chicago Ativo 127 / 128 40% 1 16.10.2027 -
Cristian Barros Cerro Ativo 90 / 112 40% 1 16.10.2027 -
Gustavo Viera Cerro Largo Ativo 94 / 99 40% 1 10.10.2027 -
Oto John ES Mostaganem Ativo 87 / 108 40% 1 23.08.2027 -
David Romero Parma Ativo 129 / 126 40% 1 10.08.2027 -
Livio Milts Paksi Ativo 87 / 83 55% 1 19.07.2027 -
Benjámin Gólik Ferencvaros Ativo 87 / 84 55% 1 07.06.2027 -
Danijel Zagorac Bekescsaba Ativo 97 / 94 55% 1 01.06.2027 -
Zeidane Inoussa Swansea City Ativo 117 / 115 40% 3 30.05.2027 -
Scott Twine Bristol City Ativo 116 / 133 40% 1 28.05.2027 -
Alessio Zerbin Frosinone Ativo 124 / 124 40% 4 26.05.2027 -
Derry Murkin Derby County Ativo 119 / 136 40% 1 25.05.2027 -
Milan van Ewijk Mansfield Town Ativo 126 / 141 40% 1 25.05.2027 -
Ryoya Morishita Blackburn Rovers Ativo 122 / 135 40% 1 24.05.2027 -
Ethan Williams Peterborough United Ativo 112 / 112 40% 1 24.05.2027 -
Daniel Kyerewaa Reading Ativo 122 / 102 40% 2 23.05.2027 -
Kristoffer Lund Birmingham Ativo 133 / 125 40% 1 23.05.2027 -
Josh Tymon Swansea City Ativo 119 / 121 40% 1 21.05.2027 -
Brian De Keersmaecker Oxford United Ativo 131 / 128 40% 1 21.05.2027 Mais informações
Ross McCrorie Bristol City Ativo 132 / 137 40% 1 21.05.2027 Mais informações
Alex Lowry Wycombe Wanderers Ativo 125 / 128 40% 1 20.05.2027 Mais informações
Josh Koroma Leyton Orient Ativo 99 / 95 40% 1 20.05.2027 -
Harry Leonard Peterborough United Ativo 120 / 119 40% 2 17.05.2027 -
Tshepang Moremi Orlando Pirates Ativo 118 / 111 40% 4 16.05.2027 -
Jacques Ekomié Wrexham Ativo 133 / 122 40% 1 16.05.2027 -
Kane Wilson Milton Keynes Dons Ativo 121 / 116 40% 1 16.05.2027 -
George Earthy Reading Ativo 112 / 129 40% 1 14.05.2027 -
Ronan Hale Gillingham Ativo 123 / 114 40% 1 12.05.2027 Mais informações
Xavier Amaechi Plymouth Argyle Ativo 109 / 112 40% 1 12.05.2027 -
Mattéo Tramoni Pisa Ativo 127 / 120 40% 2 11.05.2027 -
Stephen Humphrys Bradford City Ativo 109 / 111 40% 1 11.05.2027 -
Koki Saito Queens Park Rangers Ativo 134 / 114 40% 1 10.05.2027 -
Caolan Boyd-Munce Wycombe Wanderers Ativo 125 / 109 40% 1 09.05.2027 -
Andy Rinomhota Reading Ativo 114 / 125 40% 1 09.05.2027 -
Ilias Chair Queens Park Rangers Ativo 137 / 138 40% 1 07.05.2027 -
Mduduzi Shabalala Kaizer Chiefs Ativo 130 / 108 40% 2 06.05.2027 Mais informações
Matthew Sorinola Newport County Ativo 117 / 104 40% 1 05.05.2027 -
Connor Ogilvie Bristol Rovers Ativo 117 / 117 40% 1 05.05.2027 -
Chris Mepham West Bromwich Albion Ativo 140 / 118 40% 1 04.05.2027 -
Nat Phillips West Bromwich Albion Ativo 117 / 112 40% 1 04.05.2027 -
Ryan Trevitt Cambridge United Ativo 122 / 107 40% 1 03.05.2027 -
Edoardo Bove Watford Ativo 123 / 143 40% 1 03.05.2027 -
Harvey White Stevenage Ativo 121 / 107 40% 2 01.05.2027 -
Daniel Tonoli Modena Ativo 127 / 135 40% 1 30.04.2027 -
Marquinhos APOEL Ativo 113 / 140 40% 2 29.04.2027 -
Simone Mazzocchi Cosenza Ativo 124 / 103 40% 1 25.04.2027 -
Gabriel Strefezza Palermo Ativo 129 / 123 40% 2 24.04.2027 -
Patrick Maswanganyi Orlando Pirates Ativo 99 / 99 40% 4 23.04.2027 -
Joseph Wakaso Wa All Stars Ativo 118 / 102 40% 1 23.04.2027 -
Williams Manyama SuperSport United Ativo 120 / 112 40% 3 22.04.2027 -
Giacomo Zecca Torres Ativo 103 / 96 40% 1 22.04.2027 -
Simon Ramabu Polokwane City Ativo 90 / 96 40% 3 20.04.2027 -
Mattia Bortolussi Padova Ativo 128 / 121 40% 1 18.04.2027 -
Marcelo Allende Mamelodi Sundowns Ativo 146 / 145 40% 1 17.04.2027 -
Gaetano Castrovilli Cesena Ativo 142 / 116 40% 2 16.04.2027 -
Leo Goglichidze Rodina Ativo 124 / 122 40% 1 15.04.2027 -
Andrea Colpani Monza Ativo 139 / 134 40% 1 13.04.2027 -
Idrissa Touré Monza Ativo 136 / 124 40% 1 12.04.2027 -
Massimiliano Mangraviti Cesena Ativo 113 / 118 40% 2 11.04.2027 -
Giuseppe Pezzella Cremonese Ativo 123 / 136 40% 1 11.04.2027 -
Antonio Palumbo Palermo Ativo 136 / 128 40% 1 09.04.2027 -
Nduduzo Sibiya Golden Arrows Ativo 99 / 94 40% 4 07.04.2027 -
Camillo Tavernelli Arezzo Ativo 117 / 117 40% 1 05.04.2027 -
Samuel Tetteh Ashanti Gold Ativo 113 / 120 40% 1 04.04.2027 -
Aaron Drinan Swindon Town Ativo 102 / 92 40% 1 30.03.2027 -
Happy Mashiane Bloemfontein Celtic Ativo 98 / 105 40% 2 25.03.2027 -
Thalente Mbatha Orlando Pirates Ativo 123 / 135 40% 1 21.03.2027 -
Velemseni Ndwandwe Golden Arrows Ativo 127 / 99 40% 3 19.03.2027 -
Fortune Bassey Djoliba Ativo 85 / 94 40% 1 16.03.2027 -
Friday Ubong Ashanti Gold Ativo 115 / 88 40% 1 16.03.2027 -
Oswin Appollis Orlando Pirates Ativo 138 / 139 40% 3 15.03.2027 -
Mfundo Vilakazi Kaizer Chiefs Ativo 124 / 113 40% 1 14.03.2027 -
Erick Hlatshwayo Ajax Cape Town Ativo 88 / 100 40% 2 12.03.2027 -
Mandla Erasmus SuperSport United Ativo 109 / 123 40% 4 08.03.2027 -
Álvaro Carrillo APOEL Ativo 137 / 136 40% 1 08.03.2027 -
Siyanda Ndlovu Bloemfontein Celtic Ativo 125 / 119 40% 2 06.03.2027 -
Abdennour Iheb Belhocini JS Kabylie Ativo 113 / 120 40% 1 04.03.2027 -
Maksim Kireev KV Mechelen Ativo 125 / 118 40% 1 02.03.2027 -
Bathusi Aubaas Mamelodi Sundowns Ativo 111 / 101 40% 2 01.03.2027 -
Sebastián Arce Rodina Ativo 115 / 110 40% 2 25.02.2027 -
Fawaaz Basadien Mamelodi Sundowns Ativo 121 / 105 40% 3 20.02.2027 -
Dániel Lukács Puskas Akademia Ativo 103 / 120 40% 1 18.02.2027 -
José Martínes CSKA 1948 Ativo 113 / 108 40% 1 12.02.2027 -
Mazire Soula Levski Ativo 119 / 118 40% 2 11.02.2027 -
Xande Spartak 1918 Ativo 101 / 95 40% 1 11.02.2027 -
Jordan Lotomba Bloemfontein Celtic Ativo 135 / 119 40% 1 07.02.2027 -
Konstantinos Balogiannis Apollon Ativo 103 / 135 40% 1 06.02.2027 -
Ayanda Jiyane Golden Arrows Ativo 97 / 122 40% 1 06.02.2027 -
Đorđe Pantelić Spartak Kostroma Ativo 106 / 100 40% 1 01.02.2027 -
Arsen Adamov Akhmat Grozny Ativo 126 / 128 40% 1 01.01.2027 -
Femi Seriki Sheffield United Ativo 131 / 124 40% 1 07.12.2026 Mais informações
Erick Jali Black Aces Ativo 124 / 117 40% 1 21.11.2026 -
Rushwin Dortley Kaizer Chiefs Ativo 118 / 98 40% 1 18.11.2026 -
Themba Mokotjo Platinum Stars Ativo 120 / 88 40% 1 18.11.2026 -
Liam Bennett Cambridge United Ativo 114 / 109 40% 1 03.11.2026 -
Andras Nikolic Haladas Ativo 107 / 99 40% 1 03.11.2026 -
Andile Manyama SuperSport United Ativo 125 / 118 40% 1 05.10.2026 -
Arne Maier Ujpest Ativo 125 / 110 40% 1 08.09.2026 -
Francisco Perruzzi Aldosivi Ativo 115 / 108 40% 1 08.09.2026 -
Diego Valencia Universidad Catolica Ativo 120 / 122 40% 1 19.08.2026 -
Gabriel Jesus Barcelona Ativo 143 / 151 40% 2 03.08.2026 -